sensor_id;sensor_type;location;lat;lon;timestamp;P1;durP1;ratioP1;P2;durP2;ratioP2
22677;SDS011;26259;50.214;18.620;2022-07-25T00:01:35;9.33;;;7.20;;
22677;SDS011;26259;50.214;18.620;2022-07-25T00:04:01;12.00;;;6.90;;
22677;SDS011;26259;50.214;18.620;2022-07-25T00:06:27;9.67;;;7.70;;
22677;SDS011;26259;50.214;18.620;2022-07-25T00:08:52;8.50;;;7.27;;
22677;SDS011;26259;50.214;18.620;2022-07-25T00:11:18;8.70;;;7.20;;
22677;SDS011;26259;50.214;18.620;2022-07-25T00:13:43;12.27;;;7.03;;
22677;SDS011;26259;50.214;18.620;2022-07-25T00:16:09;10.93;;;7.90;;
22677;SDS011;26259;50.214;18.620;2022-07-25T00:18:35;10.70;;;7.53;;
22677;SDS011;26259;50.214;18.620;2022-07-25T00:21:00;10.40;;;7.83;;
22677;SDS011;26259;50.214;18.620;2022-07-25T00:23:26;9.33;;;8.07;;
22677;SDS011;26259;50.214;18.620;2022-07-25T00:25:52;10.03;;;7.77;;
22677;SDS011;26259;50.214;18.620;2022-07-25T00:28:17;9.67;;;8.07;;
22677;SDS011;26259;50.214;18.620;2022-07-25T00:30:43;8.90;;;7.93;;
22677;SDS011;26259;50.214;18.620;2022-07-25T00:33:08;8.43;;;7.33;;
22677;SDS011;26259;50.214;18.620;2022-07-25T00:35:34;8.27;;;6.93;;
22677;SDS011;26259;50.214;18.620;2022-07-25T00:37:59;8.77;;;7.40;;
22677;SDS011;26259;50.214;18.620;2022-07-25T00:40:25;13.07;;;7.27;;
22677;SDS011;26259;50.214;18.620;2022-07-25T00:42:51;14.40;;;7.60;;
22677;SDS011;26259;50.214;18.620;2022-07-25T00:45:16;9.67;;;7.40;;
22677;SDS011;26259;50.214;18.620;2022-07-25T00:47:42;8.97;;;7.43;;
22677;SDS011;26259;50.214;18.620;2022-07-25T00:50:08;12.53;;;7.40;;
22677;SDS011;26259;50.214;18.620;2022-07-25T00:52:33;8.33;;;7.30;;
22677;SDS011;26259;50.214;18.620;2022-07-25T00:54:59;8.67;;;7.13;;
22677;SDS011;26259;50.214;18.620;2022-07-25T00:57:25;17.93;;;8.07;;
22677;SDS011;26259;50.214;18.620;2022-07-25T00:59:51;10.73;;;8.03;;
22677;SDS011;26259;50.214;18.620;2022-07-25T01:02:16;7.43;;;6.63;;
22677;SDS011;26259;50.214;18.620;2022-07-25T01:04:42;7.70;;;7.00;;
22677;SDS011;26259;50.214;18.620;2022-07-25T01:07:08;9.20;;;6.47;;
22677;SDS011;26259;50.214;18.620;2022-07-25T01:09:34;7.70;;;6.87;;
22677;SDS011;26259;50.214;18.620;2022-07-25T01:12:00;7.67;;;6.67;;
22677;SDS011;26259;50.214;18.620;2022-07-25T01:14:25;9.37;;;7.63;;
22677;SDS011;26259;50.214;18.620;2022-07-25T01:16:51;7.77;;;6.77;;
22677;SDS011;26259;50.214;18.620;2022-07-25T01:19:17;10.00;;;6.80;;
22677;SDS011;26259;50.214;18.620;2022-07-25T01:21:42;10.37;;;6.77;;
22677;SDS011;26259;50.214;18.620;2022-07-25T01:24:09;7.53;;;6.73;;
22677;SDS011;26259;50.214;18.620;2022-07-25T01:26:36;7.07;;;6.37;;
22677;SDS011;26259;50.214;18.620;2022-07-25T01:29:02;8.20;;;6.87;;
22677;SDS011;26259;50.214;18.620;2022-07-25T01:31:28;8.87;;;7.03;;
22677;SDS011;26259;50.214;18.620;2022-07-25T01:33:54;8.23;;;7.43;;
22677;SDS011;26259;50.214;18.620;2022-07-25T01:36:19;8.50;;;7.00;;
22677;SDS011;26259;50.214;18.620;2022-07-25T01:38:45;7.70;;;6.90;;
22677;SDS011;26259;50.214;18.620;2022-07-25T01:41:11;11.77;;;7.30;;
22677;SDS011;26259;50.214;18.620;2022-07-25T01:43:36;10.17;;;6.93;;
22677;SDS011;26259;50.214;18.620;2022-07-25T01:46:02;10.17;;;7.07;;
22677;SDS011;26259;50.214;18.620;2022-07-25T01:48:27;10.13;;;7.47;;
22677;SDS011;26259;50.214;18.620;2022-07-25T01:50:53;9.20;;;7.10;;
22677;SDS011;26259;50.214;18.620;2022-07-25T01:53:19;9.50;;;7.37;;
22677;SDS011;26259;50.214;18.620;2022-07-25T01:55:44;9.17;;;7.37;;
22677;SDS011;26259;50.214;18.620;2022-07-25T01:58:10;9.53;;;7.83;;
22677;SDS011;26259;50.214;18.620;2022-07-25T02:00:36;10.20;;;7.60;;
22677;SDS011;26259;50.214;18.620;2022-07-25T02:03:01;8.17;;;7.30;;
22677;SDS011;26259;50.214;18.620;2022-07-25T02:05:45;11.70;;;7.47;;
22677;SDS011;26259;50.214;18.620;2022-07-25T02:08:11;14.87;;;8.13;;
22677;SDS011;26259;50.214;18.620;2022-07-25T02:10:37;9.73;;;7.77;;
22677;SDS011;26259;50.214;18.620;2022-07-25T02:13:02;11.43;;;8.67;;
22677;SDS011;26259;50.214;18.620;2022-07-25T02:15:28;11.77;;;7.83;;
22677;SDS011;26259;50.214;18.620;2022-07-25T02:17:54;10.80;;;8.67;;
22677;SDS011;26259;50.214;18.620;2022-07-25T02:20:19;10.43;;;7.87;;
22677;SDS011;26259;50.214;18.620;2022-07-25T02:22:45;10.30;;;8.27;;
22677;SDS011;26259;50.214;18.620;2022-07-25T02:25:10;11.07;;;8.10;;
22677;SDS011;26259;50.214;18.620;2022-07-25T02:27:36;10.83;;;8.43;;
22677;SDS011;26259;50.214;18.620;2022-07-25T02:30:02;10.27;;;8.50;;
22677;SDS011;26259;50.214;18.620;2022-07-25T02:32:29;12.43;;;8.53;;
22677;SDS011;26259;50.214;18.620;2022-07-25T02:34:54;16.47;;;8.87;;
22677;SDS011;26259;50.214;18.620;2022-07-25T02:37:22;11.17;;;8.30;;
22677;SDS011;26259;50.214;18.620;2022-07-25T02:39:48;11.73;;;8.07;;
22677;SDS011;26259;50.214;18.620;2022-07-25T02:42:13;11.17;;;7.93;;
22677;SDS011;26259;50.214;18.620;2022-07-25T02:44:39;11.10;;;8.13;;
22677;SDS011;26259;50.214;18.620;2022-07-25T02:47:05;10.77;;;7.30;;
22677;SDS011;26259;50.214;18.620;2022-07-25T02:49:30;11.03;;;7.80;;
22677;SDS011;26259;50.214;18.620;2022-07-25T02:51:56;12.27;;;8.83;;
22677;SDS011;26259;50.214;18.620;2022-07-25T02:54:21;11.77;;;8.00;;
22677;SDS011;26259;50.214;18.620;2022-07-25T02:56:47;10.40;;;8.10;;
22677;SDS011;26259;50.214;18.620;2022-07-25T02:59:13;10.03;;;8.07;;
22677;SDS011;26259;50.214;18.620;2022-07-25T03:01:38;11.83;;;8.30;;
22677;SDS011;26259;50.214;18.620;2022-07-25T03:04:04;10.50;;;7.83;;
22677;SDS011;26259;50.214;18.620;2022-07-25T03:06:30;11.13;;;7.77;;
22677;SDS011;26259;50.214;18.620;2022-07-25T03:08:55;13.77;;;8.80;;
22677;SDS011;26259;50.214;18.620;2022-07-25T03:11:21;11.77;;;7.53;;
22677;SDS011;26259;50.214;18.620;2022-07-25T03:13:46;9.07;;;7.40;;
22677;SDS011;26259;50.214;18.620;2022-07-25T03:16:12;10.10;;;7.93;;
22677;SDS011;26259;50.214;18.620;2022-07-25T03:18:38;9.90;;;8.20;;
22677;SDS011;26259;50.214;18.620;2022-07-25T03:21:03;11.73;;;7.73;;
22677;SDS011;26259;50.214;18.620;2022-07-25T03:23:29;20.90;;;8.47;;
22677;SDS011;26259;50.214;18.620;2022-07-25T03:25:55;9.03;;;7.03;;
22677;SDS011;26259;50.214;18.620;2022-07-25T03:28:21;10.47;;;7.37;;
22677;SDS011;26259;50.214;18.620;2022-07-25T03:30:48;10.17;;;7.87;;
22677;SDS011;26259;50.214;18.620;2022-07-25T03:33:14;10.10;;;8.27;;
22677;SDS011;26259;50.214;18.620;2022-07-25T03:35:40;12.17;;;8.57;;
22677;SDS011;26259;50.214;18.620;2022-07-25T03:38:05;10.67;;;8.67;;
22677;SDS011;26259;50.214;18.620;2022-07-25T03:40:31;10.73;;;7.90;;
22677;SDS011;26259;50.214;18.620;2022-07-25T03:42:57;11.30;;;8.77;;
22677;SDS011;26259;50.214;18.620;2022-07-25T03:45:23;13.37;;;8.80;;
22677;SDS011;26259;50.214;18.620;2022-07-25T03:47:48;12.70;;;9.33;;
22677;SDS011;26259;50.214;18.620;2022-07-25T03:50:14;12.20;;;9.70;;
22677;SDS011;26259;50.214;18.620;2022-07-25T03:52:39;12.60;;;9.90;;
22677;SDS011;26259;50.214;18.620;2022-07-25T03:55:05;10.47;;;8.90;;
22677;SDS011;26259;50.214;18.620;2022-07-25T03:57:32;12.83;;;9.73;;
22677;SDS011;26259;50.214;18.620;2022-07-25T03:59:58;10.17;;;8.90;;
22677;SDS011;26259;50.214;18.620;2022-07-25T04:02:23;10.57;;;8.77;;
22677;SDS011;26259;50.214;18.620;2022-07-25T04:04:49;12.40;;;8.90;;
22677;SDS011;26259;50.214;18.620;2022-07-25T04:07:15;13.10;;;8.57;;
22677;SDS011;26259;50.214;18.620;2022-07-25T04:09:41;9.40;;;7.97;;
22677;SDS011;26259;50.214;18.620;2022-07-25T04:12:07;11.57;;;8.07;;
22677;SDS011;26259;50.214;18.620;2022-07-25T04:14:32;12.80;;;7.57;;
22677;SDS011;26259;50.214;18.620;2022-07-25T04:16:58;9.67;;;7.53;;
22677;SDS011;26259;50.214;18.620;2022-07-25T04:19:24;9.80;;;6.93;;
22677;SDS011;26259;50.214;18.620;2022-07-25T04:21:49;7.80;;;6.50;;
22677;SDS011;26259;50.214;18.620;2022-07-25T04:24:15;7.37;;;5.73;;
22677;SDS011;26259;50.214;18.620;2022-07-25T04:26:40;10.10;;;5.90;;
22677;SDS011;26259;50.214;18.620;2022-07-25T04:29:06;8.80;;;5.93;;
22677;SDS011;26259;50.214;18.620;2022-07-25T04:31:32;9.57;;;4.80;;
22677;SDS011;26259;50.214;18.620;2022-07-25T04:33:57;7.77;;;5.03;;
22677;SDS011;26259;50.214;18.620;2022-07-25T04:36:23;7.70;;;5.00;;
22677;SDS011;26259;50.214;18.620;2022-07-25T04:38:49;6.27;;;4.60;;
22677;SDS011;26259;50.214;18.620;2022-07-25T04:41:14;4.13;;;3.73;;
22677;SDS011;26259;50.214;18.620;2022-07-25T04:43:40;6.27;;;4.70;;
22677;SDS011;26259;50.214;18.620;2022-07-25T04:46:05;5.40;;;4.47;;
22677;SDS011;26259;50.214;18.620;2022-07-25T04:48:31;6.53;;;4.13;;
22677;SDS011;26259;50.214;18.620;2022-07-25T04:50:57;9.67;;;5.10;;
22677;SDS011;26259;50.214;18.620;2022-07-25T04:53:23;6.00;;;4.43;;
22677;SDS011;26259;50.214;18.620;2022-07-25T04:55:48;6.30;;;4.70;;
22677;SDS011;26259;50.214;18.620;2022-07-25T04:58:14;7.60;;;5.23;;
22677;SDS011;26259;50.214;18.620;2022-07-25T05:00:40;5.63;;;4.97;;
22677;SDS011;26259;50.214;18.620;2022-07-25T05:03:05;9.07;;;6.00;;
22677;SDS011;26259;50.214;18.620;2022-07-25T05:05:31;6.20;;;5.20;;
22677;SDS011;26259;50.214;18.620;2022-07-25T05:07:57;9.00;;;5.87;;
22677;SDS011;26259;50.214;18.620;2022-07-25T05:10:24;6.87;;;5.47;;
22677;SDS011;26259;50.214;18.620;2022-07-25T05:12:53;11.00;;;6.77;;
22677;SDS011;26259;50.214;18.620;2022-07-25T05:15:19;8.63;;;7.03;;
22677;SDS011;26259;50.214;18.620;2022-07-25T05:17:45;9.87;;;6.60;;
22677;SDS011;26259;50.214;18.620;2022-07-25T05:20:11;8.60;;;6.73;;
22677;SDS011;26259;50.214;18.620;2022-07-25T05:22:37;10.90;;;6.70;;
22677;SDS011;26259;50.214;18.620;2022-07-25T05:25:05;7.97;;;6.50;;
22677;SDS011;26259;50.214;18.620;2022-07-25T05:27:31;11.40;;;6.50;;
22677;SDS011;26259;50.214;18.620;2022-07-25T05:29:57;10.57;;;6.60;;
22677;SDS011;26259;50.214;18.620;2022-07-25T05:32:22;12.30;;;6.13;;
22677;SDS011;26259;50.214;18.620;2022-07-25T05:34:48;8.13;;;5.60;;
22677;SDS011;26259;50.214;18.620;2022-07-25T05:37:14;7.33;;;6.17;;
22677;SDS011;26259;50.214;18.620;2022-07-25T05:39:40;9.83;;;5.97;;
22677;SDS011;26259;50.214;18.620;2022-07-25T05:42:06;5.73;;;4.90;;
22677;SDS011;26259;50.214;18.620;2022-07-25T05:44:32;12.27;;;5.50;;
22677;SDS011;26259;50.214;18.620;2022-07-25T05:46:58;8.67;;;5.30;;
22677;SDS011;26259;50.214;18.620;2022-07-25T05:49:23;9.03;;;4.57;;
22677;SDS011;26259;50.214;18.620;2022-07-25T05:51:49;7.30;;;4.57;;
22677;SDS011;26259;50.214;18.620;2022-07-25T05:54:15;10.97;;;5.00;;
22677;SDS011;26259;50.214;18.620;2022-07-25T05:56:40;5.77;;;4.63;;
22677;SDS011;26259;50.214;18.620;2022-07-25T05:59:06;10.53;;;4.23;;
22677;SDS011;26259;50.214;18.620;2022-07-25T06:01:31;7.87;;;4.40;;
22677;SDS011;26259;50.214;18.620;2022-07-25T06:03:58;6.60;;;4.70;;
22677;SDS011;26259;50.214;18.620;2022-07-25T06:06:23;9.80;;;4.77;;
22677;SDS011;26259;50.214;18.620;2022-07-25T06:08:49;9.67;;;4.67;;
22677;SDS011;26259;50.214;18.620;2022-07-25T06:11:15;7.37;;;4.77;;
22677;SDS011;26259;50.214;18.620;2022-07-25T06:13:40;10.60;;;4.90;;
22677;SDS011;26259;50.214;18.620;2022-07-25T06:16:06;6.63;;;4.17;;
22677;SDS011;26259;50.214;18.620;2022-07-25T06:18:32;9.13;;;3.83;;
22677;SDS011;26259;50.214;18.620;2022-07-25T06:20:58;11.03;;;4.30;;
22677;SDS011;26259;50.214;18.620;2022-07-25T06:23:24;7.07;;;4.07;;
22677;SDS011;26259;50.214;18.620;2022-07-25T06:25:50;6.80;;;3.23;;
22677;SDS011;26259;50.214;18.620;2022-07-25T06:28:16;5.70;;;3.07;;
22677;SDS011;26259;50.214;18.620;2022-07-25T06:30:42;5.23;;;2.93;;
22677;SDS011;26259;50.214;18.620;2022-07-25T06:33:09;8.70;;;2.87;;
22677;SDS011;26259;50.214;18.620;2022-07-25T06:35:35;7.00;;;3.33;;
22677;SDS011;26259;50.214;18.620;2022-07-25T06:38:01;4.63;;;3.20;;
22677;SDS011;26259;50.214;18.620;2022-07-25T06:40:27;9.83;;;5.63;;
22677;SDS011;26259;50.214;18.620;2022-07-25T06:42:53;3.90;;;3.03;;
22677;SDS011;26259;50.214;18.620;2022-07-25T06:45:18;4.13;;;3.13;;
22677;SDS011;26259;50.214;18.620;2022-07-25T06:47:44;8.83;;;2.67;;
22677;SDS011;26259;50.214;18.620;2022-07-25T06:50:11;6.00;;;2.80;;
22677;SDS011;26259;50.214;18.620;2022-07-25T06:52:38;10.63;;;3.23;;
22677;SDS011;26259;50.214;18.620;2022-07-25T06:55:04;6.67;;;2.47;;
22677;SDS011;26259;50.214;18.620;2022-07-25T06:57:31;6.13;;;3.00;;
22677;SDS011;26259;50.214;18.620;2022-07-25T06:59:57;6.33;;;3.37;;
22677;SDS011;26259;50.214;18.620;2022-07-25T07:02:23;5.63;;;2.70;;
22677;SDS011;26259;50.214;18.620;2022-07-25T07:04:48;6.67;;;2.77;;
22677;SDS011;26259;50.214;18.620;2022-07-25T07:07:15;5.43;;;2.80;;
22677;SDS011;26259;50.214;18.620;2022-07-25T07:09:40;6.33;;;2.90;;
22677;SDS011;26259;50.214;18.620;2022-07-25T07:12:07;6.57;;;2.97;;
22677;SDS011;26259;50.214;18.620;2022-07-25T07:14:33;7.50;;;2.87;;
22677;SDS011;26259;50.214;18.620;2022-07-25T07:16:59;5.60;;;2.20;;
22677;SDS011;26259;50.214;18.620;2022-07-25T07:19:24;8.50;;;2.83;;
22677;SDS011;26259;50.214;18.620;2022-07-25T07:21:50;7.20;;;2.60;;
22677;SDS011;26259;50.214;18.620;2022-07-25T07:24:16;5.47;;;2.40;;
22677;SDS011;26259;50.214;18.620;2022-07-25T07:26:42;7.90;;;2.87;;
22677;SDS011;26259;50.214;18.620;2022-07-25T07:29:08;6.97;;;2.70;;
22677;SDS011;26259;50.214;18.620;2022-07-25T07:31:33;8.37;;;2.23;;
22677;SDS011;26259;50.214;18.620;2022-07-25T07:33:59;2.73;;;2.30;;
22677;SDS011;26259;50.214;18.620;2022-07-25T07:36:25;5.43;;;2.50;;
22677;SDS011;26259;50.214;18.620;2022-07-25T07:38:50;6.93;;;2.63;;
22677;SDS011;26259;50.214;18.620;2022-07-25T07:41:17;5.67;;;2.00;;
22677;SDS011;26259;50.214;18.620;2022-07-25T07:43:43;6.70;;;2.50;;
22677;SDS011;26259;50.214;18.620;2022-07-25T07:46:09;7.10;;;2.20;;
22677;SDS011;26259;50.214;18.620;2022-07-25T07:48:35;6.03;;;1.90;;
22677;SDS011;26259;50.214;18.620;2022-07-25T07:51:02;7.87;;;2.30;;
22677;SDS011;26259;50.214;18.620;2022-07-25T07:53:28;4.73;;;2.00;;
22677;SDS011;26259;50.214;18.620;2022-07-25T07:56:13;5.50;;;2.40;;
22677;SDS011;26259;50.214;18.620;2022-07-25T07:58:39;8.63;;;3.40;;
22677;SDS011;26259;50.214;18.620;2022-07-25T08:01:05;3.50;;;2.00;;
22677;SDS011;26259;50.214;18.620;2022-07-25T08:03:31;3.93;;;1.90;;
22677;SDS011;26259;50.214;18.620;2022-07-25T08:05:57;2.60;;;1.73;;
22677;SDS011;26259;50.214;18.620;2022-07-25T08:08:23;2.70;;;1.70;;
22677;SDS011;26259;50.214;18.620;2022-07-25T08:10:49;6.53;;;1.50;;
22677;SDS011;26259;50.214;18.620;2022-07-25T08:13:19;5.53;;;1.70;;
22677;SDS011;26259;50.214;18.620;2022-07-25T08:15:48;2.22;;;1.88;;
22677;SDS011;26259;50.214;18.620;2022-07-25T08:18:15;2.13;;;1.50;;
22677;SDS011;26259;50.214;18.620;2022-07-25T08:20:41;4.07;;;1.30;;
22677;SDS011;26259;50.214;18.620;2022-07-25T08:23:06;5.13;;;1.63;;
22677;SDS011;26259;50.214;18.620;2022-07-25T08:25:36;5.28;;;1.58;;
22677;SDS011;26259;50.214;18.620;2022-07-25T08:28:03;4.47;;;1.80;;
22677;SDS011;26259;50.214;18.620;2022-07-25T08:30:30;2.95;;;1.33;;
22677;SDS011;26259;50.214;18.620;2022-07-25T08:32:57;1.70;;;1.20;;
22677;SDS011;26259;50.214;18.620;2022-07-25T08:35:25;2.72;;;1.20;;
22677;SDS011;26259;50.214;18.620;2022-07-25T08:37:51;3.97;;;1.45;;
22677;SDS011;26259;50.214;18.620;2022-07-25T08:40:18;4.72;;;1.52;;
22677;SDS011;26259;50.214;18.620;2022-07-25T08:42:45;1.40;;;1.10;;
22677;SDS011;26259;50.214;18.620;2022-07-25T08:45:12;1.90;;;1.15;;
22677;SDS011;26259;50.214;18.620;2022-07-25T08:47:40;3.15;;;1.23;;
22677;SDS011;26259;50.214;18.620;2022-07-25T08:50:10;2.70;;;1.88;;
22677;SDS011;26259;50.214;18.620;2022-07-25T08:52:38;2.15;;;1.48;;
22677;SDS011;26259;50.214;18.620;2022-07-25T08:55:04;11.65;;;1.58;;
22677;SDS011;26259;50.214;18.620;2022-07-25T08:57:32;2.05;;;1.38;;
22677;SDS011;26259;50.214;18.620;2022-07-25T08:59:59;2.95;;;1.50;;
22677;SDS011;26259;50.214;18.620;2022-07-25T09:02:25;2.92;;;1.38;;
22677;SDS011;26259;50.214;18.620;2022-07-25T09:04:52;1.65;;;1.55;;
22677;SDS011;26259;50.214;18.620;2022-07-25T09:07:28;2.88;;;1.48;;
22677;SDS011;26259;50.214;18.620;2022-07-25T09:09:58;1.23;;;1.13;;
22677;SDS011;26259;50.214;18.620;2022-07-25T09:12:36;3.03;;;1.10;;
22677;SDS011;26259;50.214;18.620;2022-07-25T09:15:01;3.67;;;1.23;;
22677;SDS011;26259;50.214;18.620;2022-07-25T09:17:48;2.45;;;1.42;;
22677;SDS011;26259;50.214;18.620;2022-07-25T09:20:14;1.85;;;1.40;;
22677;SDS011;26259;50.214;18.620;2022-07-25T09:22:44;6.00;;;2.50;;
22677;SDS011;26259;50.214;18.620;2022-07-25T09:25:19;5.25;;;2.05;;
22677;SDS011;26259;50.214;18.620;2022-07-25T09:27:49;2.58;;;1.17;;
22677;SDS011;26259;50.214;18.620;2022-07-25T09:30:15;1.70;;;1.20;;
22677;SDS011;26259;50.214;18.620;2022-07-25T09:32:41;2.13;;;1.30;;
22677;SDS011;26259;50.214;18.620;2022-07-25T09:35:06;1.30;;;1.20;;
22677;SDS011;26259;50.214;18.620;2022-07-25T09:37:32;2.33;;;1.55;;
22677;SDS011;26259;50.214;18.620;2022-07-25T09:39:58;3.25;;;1.50;;
22677;SDS011;26259;50.214;18.620;2022-07-25T09:42:30;3.28;;;1.40;;
22677;SDS011;26259;50.214;18.620;2022-07-25T09:44:57;2.22;;;1.50;;
22677;SDS011;26259;50.214;18.620;2022-07-25T09:47:25;2.85;;;1.42;;
22677;SDS011;26259;50.214;18.620;2022-07-25T09:49:51;1.90;;;1.20;;
22677;SDS011;26259;50.214;18.620;2022-07-25T09:52:16;2.67;;;1.20;;
22677;SDS011;26259;50.214;18.620;2022-07-25T09:54:42;4.75;;;1.20;;
22677;SDS011;26259;50.214;18.620;2022-07-25T09:57:08;5.80;;;1.70;;
22677;SDS011;26259;50.214;18.620;2022-07-25T09:59:34;1.25;;;1.08;;
22677;SDS011;26259;50.214;18.620;2022-07-25T10:05:08;2.60;;;0.90;;
22677;SDS011;26259;50.214;18.620;2022-07-25T10:07:47;2.20;;;1.50;;
22677;SDS011;26259;50.214;18.620;2022-07-25T10:10:23;1.25;;;1.15;;
22677;SDS011;26259;50.214;18.620;2022-07-25T10:13:00;3.40;;;1.27;;
22677;SDS011;26259;50.214;18.620;2022-07-25T10:15:42;1.40;;;1.00;;
22677;SDS011;26259;50.214;18.620;2022-07-25T10:18:09;3.90;;;1.35;;
22677;SDS011;26259;50.214;18.620;2022-07-25T10:20:36;1.20;;;1.10;;
22677;SDS011;26259;50.214;18.620;2022-07-25T10:23:03;4.03;;;1.50;;
22677;SDS011;26259;50.214;18.620;2022-07-25T10:25:29;5.97;;;1.65;;
22677;SDS011;26259;50.214;18.620;2022-07-25T10:27:58;3.88;;;1.83;;
22677;SDS011;26259;50.214;18.620;2022-07-25T10:30:33;1.30;;;1.20;;
22677;SDS011;26259;50.214;18.620;2022-07-25T10:33:01;3.85;;;1.25;;
22677;SDS011;26259;50.214;18.620;2022-07-25T10:35:28;1.83;;;1.30;;
22677;SDS011;26259;50.214;18.620;2022-07-25T10:37:56;2.67;;;1.13;;
22677;SDS011;26259;50.214;18.620;2022-07-25T10:40:31;4.20;;;1.38;;
22677;SDS011;26259;50.214;18.620;2022-07-25T10:43:10;1.52;;;1.30;;
22677;SDS011;26259;50.214;18.620;2022-07-25T10:45:41;1.83;;;1.30;;
22677;SDS011;26259;50.214;18.620;2022-07-25T10:48:08;4.43;;;1.13;;
22677;SDS011;26259;50.214;18.620;2022-07-25T10:50:48;3.13;;;1.23;;
22677;SDS011;26259;50.214;18.620;2022-07-25T10:53:54;4.65;;;1.45;;
22677;SDS011;26259;50.214;18.620;2022-07-25T10:58:49;1.63;;;1.02;;
22677;SDS011;26259;50.214;18.620;2022-07-25T11:03:53;1.15;;;1.05;;
22677;SDS011;26259;50.214;18.620;2022-07-25T11:06:53;5.32;;;1.35;;
22677;SDS011;26259;50.214;18.620;2022-07-25T11:09:22;1.45;;;1.17;;
22677;SDS011;26259;50.214;18.620;2022-07-25T11:11:50;5.40;;;1.35;;
22677;SDS011;26259;50.214;18.620;2022-07-25T11:14:18;1.52;;;1.20;;
22677;SDS011;26259;50.214;18.620;2022-07-25T11:16:46;3.22;;;1.00;;
22677;SDS011;26259;50.214;18.620;2022-07-25T11:19:18;1.35;;;0.93;;
22677;SDS011;26259;50.214;18.620;2022-07-25T11:21:55;2.80;;;1.27;;
22677;SDS011;26259;50.214;18.620;2022-07-25T11:27:01;3.50;;;1.23;;
22677;SDS011;26259;50.214;18.620;2022-07-25T11:29:27;9.35;;;1.42;;
22677;SDS011;26259;50.214;18.620;2022-07-25T11:31:54;2.20;;;1.20;;
22677;SDS011;26259;50.214;18.620;2022-07-25T11:34:22;1.52;;;1.10;;
22677;SDS011;26259;50.214;18.620;2022-07-25T11:36:50;6.60;;;1.05;;
22677;SDS011;26259;50.214;18.620;2022-07-25T11:39:19;5.85;;;1.50;;
22677;SDS011;26259;50.214;18.620;2022-07-25T11:41:45;1.63;;;1.23;;
22677;SDS011;26259;50.214;18.620;2022-07-25T11:44:28;2.53;;;1.30;;
22677;SDS011;26259;50.214;18.620;2022-07-25T11:46:58;5.07;;;0.98;;
22677;SDS011;26259;50.214;18.620;2022-07-25T11:49:24;1.30;;;1.15;;
22677;SDS011;26259;50.214;18.620;2022-07-25T11:51:49;1.00;;;1.00;;
22677;SDS011;26259;50.214;18.620;2022-07-25T11:54:15;1.58;;;0.90;;
22677;SDS011;26259;50.214;18.620;2022-07-25T11:56:40;0.90;;;0.85;;
22677;SDS011;26259;50.214;18.620;2022-07-25T11:59:07;1.50;;;1.00;;
22677;SDS011;26259;50.214;18.620;2022-07-25T12:01:37;5.32;;;1.00;;
22677;SDS011;26259;50.214;18.620;2022-07-25T12:04:14;2.47;;;1.00;;
22677;SDS011;26259;50.214;18.620;2022-07-25T12:06:50;4.35;;;0.98;;
22677;SDS011;26259;50.214;18.620;2022-07-25T12:09:17;2.65;;;1.10;;
22677;SDS011;26259;50.214;18.620;2022-07-25T12:11:43;0.98;;;0.98;;
22677;SDS011;26259;50.214;18.620;2022-07-25T12:14:10;2.58;;;1.20;;
22677;SDS011;26259;50.214;18.620;2022-07-25T12:16:36;2.17;;;1.30;;
22677;SDS011;26259;50.214;18.620;2022-07-25T12:19:03;2.70;;;1.38;;
22677;SDS011;26259;50.214;18.620;2022-07-25T12:21:32;2.25;;;1.45;;
22677;SDS011;26259;50.214;18.620;2022-07-25T12:23:58;2.05;;;1.08;;
22677;SDS011;26259;50.214;18.620;2022-07-25T12:26:23;2.95;;;1.25;;
22677;SDS011;26259;50.214;18.620;2022-07-25T12:28:49;1.35;;;1.15;;
22677;SDS011;26259;50.214;18.620;2022-07-25T12:31:14;3.42;;;1.00;;
22677;SDS011;26259;50.214;18.620;2022-07-25T12:33:40;1.00;;;1.00;;
22677;SDS011;26259;50.214;18.620;2022-07-25T12:36:06;1.40;;;0.90;;
22677;SDS011;26259;50.214;18.620;2022-07-25T12:38:32;3.53;;;1.40;;
22677;SDS011;26259;50.214;18.620;2022-07-25T12:40:57;1.42;;;1.10;;
22677;SDS011;26259;50.214;18.620;2022-07-25T12:43:23;3.58;;;1.48;;
22677;SDS011;26259;50.214;18.620;2022-07-25T12:45:49;5.20;;;1.00;;
22677;SDS011;26259;50.214;18.620;2022-07-25T12:48:14;1.20;;;1.10;;
22677;SDS011;26259;50.214;18.620;2022-07-25T12:50:40;3.17;;;1.10;;
22677;SDS011;26259;50.214;18.620;2022-07-25T12:53:06;1.50;;;0.93;;
22677;SDS011;26259;50.214;18.620;2022-07-25T12:55:32;1.60;;;1.50;;
22677;SDS011;26259;50.214;18.620;2022-07-25T12:57:58;1.52;;;0.95;;
22677;SDS011;26259;50.214;18.620;2022-07-25T13:00:24;1.10;;;1.00;;
22677;SDS011;26259;50.214;18.620;2022-07-25T13:02:50;2.60;;;1.00;;
22677;SDS011;26259;50.214;18.620;2022-07-25T13:05:17;3.10;;;0.98;;
22677;SDS011;26259;50.214;18.620;2022-07-25T13:07:43;2.05;;;0.90;;
22677;SDS011;26259;50.214;18.620;2022-07-25T13:10:09;2.67;;;1.15;;
22677;SDS011;26259;50.214;18.620;2022-07-25T13:12:36;1.13;;;1.02;;
22677;SDS011;26259;50.214;18.620;2022-07-25T13:15:02;0.82;;;0.80;;
22677;SDS011;26259;50.214;18.620;2022-07-25T13:17:28;1.55;;;1.15;;
22677;SDS011;26259;50.214;18.620;2022-07-25T13:19:54;1.40;;;1.20;;
22677;SDS011;26259;50.214;18.620;2022-07-25T13:22:20;1.73;;;1.27;;
22677;SDS011;26259;50.214;18.620;2022-07-25T13:24:45;2.17;;;1.00;;
22677;SDS011;26259;50.214;18.620;2022-07-25T13:27:11;1.67;;;1.10;;
22677;SDS011;26259;50.214;18.620;2022-07-25T13:29:37;3.63;;;1.02;;
22677;SDS011;26259;50.214;18.620;2022-07-25T13:32:02;1.85;;;1.13;;
22677;SDS011;26259;50.214;18.620;2022-07-25T13:34:28;1.70;;;0.98;;
22677;SDS011;26259;50.214;18.620;2022-07-25T13:36:54;3.45;;;0.90;;
22677;SDS011;26259;50.214;18.620;2022-07-25T13:39:20;0.93;;;0.85;;
22677;SDS011;26259;50.214;18.620;2022-07-25T13:41:46;1.55;;;0.82;;
22677;SDS011;26259;50.214;18.620;2022-07-25T13:44:13;1.45;;;1.02;;
22677;SDS011;26259;50.214;18.620;2022-07-25T13:46:39;1.15;;;1.05;;
22677;SDS011;26259;50.214;18.620;2022-07-25T13:49:05;3.03;;;1.00;;
22677;SDS011;26259;50.214;18.620;2022-07-25T13:51:31;1.10;;;1.00;;
22677;SDS011;26259;50.214;18.620;2022-07-25T13:53:56;2.20;;;0.82;;
22677;SDS011;26259;50.214;18.620;2022-07-25T13:56:22;1.85;;;1.27;;
22677;SDS011;26259;50.214;18.620;2022-07-25T13:58:47;1.67;;;1.30;;
22677;SDS011;26259;50.214;18.620;2022-07-25T14:01:13;3.08;;;1.02;;
22677;SDS011;26259;50.214;18.620;2022-07-25T14:03:38;2.15;;;0.95;;
22677;SDS011;26259;50.214;18.620;2022-07-25T14:06:04;1.13;;;1.02;;
22677;SDS011;26259;50.214;18.620;2022-07-25T14:08:32;4.53;;;1.08;;
22677;SDS011;26259;50.214;18.620;2022-07-25T14:10:58;1.38;;;1.15;;
22677;SDS011;26259;50.214;18.620;2022-07-25T14:13:24;3.80;;;1.33;;
22677;SDS011;26259;50.214;18.620;2022-07-25T14:15:49;4.97;;;1.20;;
22677;SDS011;26259;50.214;18.620;2022-07-25T14:18:15;1.08;;;0.93;;
22677;SDS011;26259;50.214;18.620;2022-07-25T14:20:40;2.95;;;0.88;;
22677;SDS011;26259;50.214;18.620;2022-07-25T14:23:06;3.65;;;0.80;;
22677;SDS011;26259;50.214;18.620;2022-07-25T14:25:32;1.48;;;1.10;;
22677;SDS011;26259;50.214;18.620;2022-07-25T14:27:58;1.00;;;0.95;;
22677;SDS011;26259;50.214;18.620;2022-07-25T14:30:24;2.13;;;0.98;;
22677;SDS011;26259;50.214;18.620;2022-07-25T14:32:50;1.10;;;1.00;;
22677;SDS011;26259;50.214;18.620;2022-07-25T14:35:15;7.18;;;1.10;;
22677;SDS011;26259;50.214;18.620;2022-07-25T14:37:41;2.42;;;1.00;;
22677;SDS011;26259;50.214;18.620;2022-07-25T14:40:07;1.60;;;1.02;;